sensor_id;sensor_type;location;lat;lon;timestamp;P1;durP1;ratioP1;P2;durP2;ratioP2
11222;SDS011;5668;52.012;8.724;2023-04-19T00:02:12;5.23;;;4.63;;
11222;SDS011;5668;52.012;8.724;2023-04-19T00:04:42;4.50;;;4.10;;
11222;SDS011;5668;52.012;8.724;2023-04-19T00:07:10;4.60;;;4.20;;
11222;SDS011;5668;52.012;8.724;2023-04-19T00:09:37;5.63;;;4.50;;
11222;SDS011;5668;52.012;8.724;2023-04-19T00:12:04;5.30;;;4.80;;
11222;SDS011;5668;52.012;8.724;2023-04-19T00:14:32;5.50;;;5.00;;
11222;SDS011;5668;52.012;8.724;2023-04-19T00:16:59;5.53;;;5.03;;
11222;SDS011;5668;52.012;8.724;2023-04-19T00:19:26;4.60;;;4.20;;
11222;SDS011;5668;52.012;8.724;2023-04-19T00:21:55;4.80;;;4.37;;
11222;SDS011;5668;52.012;8.724;2023-04-19T00:24:22;5.40;;;4.73;;
11222;SDS011;5668;52.012;8.724;2023-04-19T00:26:49;4.83;;;4.33;;
11222;SDS011;5668;52.012;8.724;2023-04-19T00:29:16;4.63;;;4.13;;
11222;SDS011;5668;52.012;8.724;2023-04-19T00:31:44;5.10;;;4.60;;
11222;SDS011;5668;52.012;8.724;2023-04-19T00:34:11;5.37;;;4.17;;
11222;SDS011;5668;52.012;8.724;2023-04-19T00:36:38;5.63;;;4.20;;
11222;SDS011;5668;52.012;8.724;2023-04-19T00:39:07;5.70;;;4.07;;
11222;SDS011;5668;52.012;8.724;2023-04-19T00:41:34;6.13;;;4.57;;
11222;SDS011;5668;52.012;8.724;2023-04-19T00:44:01;6.03;;;5.00;;
11222;SDS011;5668;52.012;8.724;2023-04-19T00:46:29;4.93;;;4.47;;
11222;SDS011;5668;52.012;8.724;2023-04-19T00:48:56;5.13;;;4.57;;
11222;SDS011;5668;52.012;8.724;2023-04-19T00:51:24;5.10;;;4.50;;
11222;SDS011;5668;52.012;8.724;2023-04-19T00:53:52;5.10;;;4.60;;
11222;SDS011;5668;52.012;8.724;2023-04-19T00:56:21;6.00;;;4.77;;
11222;SDS011;5668;52.012;8.724;2023-04-19T00:58:49;5.13;;;4.70;;
11222;SDS011;5668;52.012;8.724;2023-04-19T01:01:16;5.27;;;4.77;;
11222;SDS011;5668;52.012;8.724;2023-04-19T01:03:44;6.80;;;4.90;;
11222;SDS011;5668;52.012;8.724;2023-04-19T01:06:12;5.53;;;5.03;;
11222;SDS011;5668;52.012;8.724;2023-04-19T01:08:39;6.23;;;5.23;;
11222;SDS011;5668;52.012;8.724;2023-04-19T01:11:07;5.93;;;5.33;;
11222;SDS011;5668;52.012;8.724;2023-04-19T01:13:35;5.43;;;4.93;;
11222;SDS011;5668;52.012;8.724;2023-04-19T01:16:03;5.73;;;5.03;;
11222;SDS011;5668;52.012;8.724;2023-04-19T01:18:31;5.47;;;4.97;;
11222;SDS011;5668;52.012;8.724;2023-04-19T01:21:01;5.83;;;4.90;;
11222;SDS011;5668;52.012;8.724;2023-04-19T01:23:30;5.50;;;4.97;;
11222;SDS011;5668;52.012;8.724;2023-04-19T01:25:57;6.60;;;5.27;;
11222;SDS011;5668;52.012;8.724;2023-04-19T01:28:25;6.43;;;5.63;;
11222;SDS011;5668;52.012;8.724;2023-04-19T01:30:52;5.37;;;4.83;;
11222;SDS011;5668;52.012;8.724;2023-04-19T01:33:20;5.90;;;5.23;;
11222;SDS011;5668;52.012;8.724;2023-04-19T01:35:47;5.27;;;4.73;;
11222;SDS011;5668;52.012;8.724;2023-04-19T01:38:15;5.63;;;5.03;;
11222;SDS011;5668;52.012;8.724;2023-04-19T01:40:44;6.63;;;5.33;;
11222;SDS011;5668;52.012;8.724;2023-04-19T01:43:11;5.60;;;5.10;;
11222;SDS011;5668;52.012;8.724;2023-04-19T01:45:40;5.97;;;5.30;;
11222;SDS011;5668;52.012;8.724;2023-04-19T01:48:07;5.87;;;5.10;;
11222;SDS011;5668;52.012;8.724;2023-04-19T01:50:34;5.80;;;5.20;;
11222;SDS011;5668;52.012;8.724;2023-04-19T01:53:01;5.50;;;5.00;;
11222;SDS011;5668;52.012;8.724;2023-04-19T01:55:28;5.77;;;5.00;;
11222;SDS011;5668;52.012;8.724;2023-04-19T01:57:57;5.80;;;5.20;;
11222;SDS011;5668;52.012;8.724;2023-04-19T02:00:24;6.10;;;5.50;;
11222;SDS011;5668;52.012;8.724;2023-04-19T02:02:51;6.13;;;5.47;;
11222;SDS011;5668;52.012;8.724;2023-04-19T02:05:20;5.73;;;5.13;;
11222;SDS011;5668;52.012;8.724;2023-04-19T02:07:47;7.67;;;5.07;;
11222;SDS011;5668;52.012;8.724;2023-04-19T02:10:15;5.50;;;4.87;;
11222;SDS011;5668;52.012;8.724;2023-04-19T02:12:43;5.53;;;5.00;;
11222;SDS011;5668;52.012;8.724;2023-04-19T02:15:11;7.23;;;5.10;;
11222;SDS011;5668;52.012;8.724;2023-04-19T02:17:39;5.80;;;5.20;;
11222;SDS011;5668;52.012;8.724;2023-04-19T02:20:07;5.47;;;4.97;;
11222;SDS011;5668;52.012;8.724;2023-04-19T02:22:36;5.53;;;4.90;;
11222;SDS011;5668;52.012;8.724;2023-04-19T02:25:03;7.93;;;4.87;;
11222;SDS011;5668;52.012;8.724;2023-04-19T02:27:31;8.97;;;5.30;;
11222;SDS011;5668;52.012;8.724;2023-04-19T02:29:58;6.97;;;5.03;;
11222;SDS011;5668;52.012;8.724;2023-04-19T02:32:27;5.47;;;4.70;;
11222;SDS011;5668;52.012;8.724;2023-04-19T02:34:54;6.10;;;5.37;;
11222;SDS011;5668;52.012;8.724;2023-04-19T02:37:21;5.23;;;4.73;;
11222;SDS011;5668;52.012;8.724;2023-04-19T02:39:48;5.40;;;4.70;;
11222;SDS011;5668;52.012;8.724;2023-04-19T02:42:16;6.40;;;5.10;;
11222;SDS011;5668;52.012;8.724;2023-04-19T02:44:43;5.57;;;5.00;;
11222;SDS011;5668;52.012;8.724;2023-04-19T02:47:10;5.93;;;5.20;;
11222;SDS011;5668;52.012;8.724;2023-04-19T02:49:39;6.80;;;4.90;;
11222;SDS011;5668;52.012;8.724;2023-04-19T02:52:06;5.90;;;4.90;;
11222;SDS011;5668;52.012;8.724;2023-04-19T02:54:33;5.10;;;4.60;;
11222;SDS011;5668;52.012;8.724;2023-04-19T02:57:01;5.73;;;4.93;;
11222;SDS011;5668;52.012;8.724;2023-04-19T02:59:28;5.30;;;4.80;;
11222;SDS011;5668;52.012;8.724;2023-04-19T03:01:55;8.23;;;5.10;;
11222;SDS011;5668;52.012;8.724;2023-04-19T03:04:22;6.27;;;5.10;;
11222;SDS011;5668;52.012;8.724;2023-04-19T03:06:51;7.07;;;4.97;;
11222;SDS011;5668;52.012;8.724;2023-04-19T03:09:19;5.90;;;5.13;;
11222;SDS011;5668;52.012;8.724;2023-04-19T03:11:46;6.43;;;5.60;;
11222;SDS011;5668;52.012;8.724;2023-04-19T03:14:13;6.23;;;5.57;;
11222;SDS011;5668;52.012;8.724;2023-04-19T03:16:40;5.77;;;5.10;;
11222;SDS011;5668;52.012;8.724;2023-04-19T03:19:07;5.97;;;4.83;;
11222;SDS011;5668;52.012;8.724;2023-04-19T03:21:35;7.60;;;4.50;;
11222;SDS011;5668;52.012;8.724;2023-04-19T03:24:04;5.73;;;4.63;;
11222;SDS011;5668;52.012;8.724;2023-04-19T03:26:31;4.40;;;4.00;;
11222;SDS011;5668;52.012;8.724;2023-04-19T03:28:58;8.13;;;5.07;;
11222;SDS011;5668;52.012;8.724;2023-04-19T03:31:26;6.77;;;4.27;;
11222;SDS011;5668;52.012;8.724;2023-04-19T03:33:53;5.83;;;3.73;;
11222;SDS011;5668;52.012;8.724;2023-04-19T03:36:21;4.10;;;3.60;;
11222;SDS011;5668;52.012;8.724;2023-04-19T03:38:49;5.60;;;3.70;;
11222;SDS011;5668;52.012;8.724;2023-04-19T03:41:21;4.20;;;3.80;;
11222;SDS011;5668;52.012;8.724;2023-04-19T03:43:49;4.33;;;3.80;;
11222;SDS011;5668;52.012;8.724;2023-04-19T03:46:17;6.70;;;3.30;;
11222;SDS011;5668;52.012;8.724;2023-04-19T03:48:44;3.40;;;3.00;;
11222;SDS011;5668;52.012;8.724;2023-04-19T03:51:11;3.47;;;2.90;;
11222;SDS011;5668;52.012;8.724;2023-04-19T03:53:40;3.77;;;3.10;;
11222;SDS011;5668;52.012;8.724;2023-04-19T03:56:07;3.77;;;3.30;;
11222;SDS011;5668;52.012;8.724;2023-04-19T03:58:36;3.80;;;3.23;;
11222;SDS011;5668;52.012;8.724;2023-04-19T04:01:03;3.43;;;2.80;;
11222;SDS011;5668;52.012;8.724;2023-04-19T04:03:32;4.07;;;3.03;;
11222;SDS011;5668;52.012;8.724;2023-04-19T04:05:59;3.80;;;2.77;;
11222;SDS011;5668;52.012;8.724;2023-04-19T04:08:26;3.00;;;2.70;;
11222;SDS011;5668;52.012;8.724;2023-04-19T04:10:54;4.57;;;2.60;;
11222;SDS011;5668;52.012;8.724;2023-04-19T04:13:21;3.40;;;2.90;;
11222;SDS011;5668;52.012;8.724;2023-04-19T04:15:49;4.90;;;3.00;;
11222;SDS011;5668;52.012;8.724;2023-04-19T04:18:16;4.10;;;2.90;;
11222;SDS011;5668;52.012;8.724;2023-04-19T04:20:45;4.10;;;2.80;;
11222;SDS011;5668;52.012;8.724;2023-04-19T04:23:12;3.30;;;3.00;;
11222;SDS011;5668;52.012;8.724;2023-04-19T04:25:40;4.97;;;3.30;;
11222;SDS011;5668;52.012;8.724;2023-04-19T04:28:08;4.77;;;2.97;;
11222;SDS011;5668;52.012;8.724;2023-04-19T04:30:35;3.93;;;2.53;;
11222;SDS011;5668;52.012;8.724;2023-04-19T04:33:03;5.40;;;2.90;;
11222;SDS011;5668;52.012;8.724;2023-04-19T04:35:32;3.23;;;2.53;;
11222;SDS011;5668;52.012;8.724;2023-04-19T04:38:00;3.83;;;2.63;;
11222;SDS011;5668;52.012;8.724;2023-04-19T04:40:27;2.97;;;2.60;;
11222;SDS011;5668;52.012;8.724;2023-04-19T04:42:55;2.97;;;2.60;;
11222;SDS011;5668;52.012;8.724;2023-04-19T04:45:24;3.70;;;2.73;;
11222;SDS011;5668;52.012;8.724;2023-04-19T04:47:56;4.80;;;2.67;;
11222;SDS011;5668;52.012;8.724;2023-04-19T04:50:24;2.90;;;2.63;;
11222;SDS011;5668;52.012;8.724;2023-04-19T04:52:52;6.63;;;2.40;;
11222;SDS011;5668;52.012;8.724;2023-04-19T04:55:19;4.30;;;2.77;;
11222;SDS011;5668;52.012;8.724;2023-04-19T04:57:48;3.37;;;2.30;;
11222;SDS011;5668;52.012;8.724;2023-04-19T05:00:18;2.40;;;2.20;;
11222;SDS011;5668;52.012;8.724;2023-04-19T05:02:46;2.60;;;2.30;;
11222;SDS011;5668;52.012;8.724;2023-04-19T05:05:13;2.23;;;2.03;;
11222;SDS011;5668;52.012;8.724;2023-04-19T05:07:42;3.67;;;2.40;;
11222;SDS011;5668;52.012;8.724;2023-04-19T05:10:10;3.33;;;2.40;;
11222;SDS011;5668;52.012;8.724;2023-04-19T05:12:38;3.13;;;2.30;;
11222;SDS011;5668;52.012;8.724;2023-04-19T05:15:06;3.47;;;2.33;;
11222;SDS011;5668;52.012;8.724;2023-04-19T05:17:35;2.50;;;2.20;;
11222;SDS011;5668;52.012;8.724;2023-04-19T05:20:03;2.40;;;2.03;;
11222;SDS011;5668;52.012;8.724;2023-04-19T05:22:32;2.37;;;2.10;;
11222;SDS011;5668;52.012;8.724;2023-04-19T05:25:01;5.70;;;2.50;;
11222;SDS011;5668;52.012;8.724;2023-04-19T05:27:28;3.07;;;2.03;;
11222;SDS011;5668;52.012;8.724;2023-04-19T05:29:55;3.70;;;2.50;;
11222;SDS011;5668;52.012;8.724;2023-04-19T05:32:22;3.33;;;2.20;;
11222;SDS011;5668;52.012;8.724;2023-04-19T05:34:50;3.43;;;2.47;;
11222;SDS011;5668;52.012;8.724;2023-04-19T05:37:17;3.00;;;2.20;;
11222;SDS011;5668;52.012;8.724;2023-04-19T05:39:44;2.63;;;2.20;;
11222;SDS011;5668;52.012;8.724;2023-04-19T05:42:13;4.97;;;2.40;;
11222;SDS011;5668;52.012;8.724;2023-04-19T05:44:40;4.97;;;2.40;;
11222;SDS011;5668;52.012;8.724;2023-04-19T05:47:07;3.73;;;2.40;;
11222;SDS011;5668;52.012;8.724;2023-04-19T05:49:34;3.00;;;2.37;;
11222;SDS011;5668;52.012;8.724;2023-04-19T05:52:02;3.73;;;2.40;;
11222;SDS011;5668;52.012;8.724;2023-04-19T05:54:29;3.53;;;2.40;;
11222;SDS011;5668;52.012;8.724;2023-04-19T05:56:59;3.40;;;2.20;;
11222;SDS011;5668;52.012;8.724;2023-04-19T05:59:28;3.07;;;2.17;;
11222;SDS011;5668;52.012;8.724;2023-04-19T06:01:55;3.13;;;2.43;;
11222;SDS011;5668;52.012;8.724;2023-04-19T06:04:23;3.03;;;2.43;;
11222;SDS011;5668;52.012;8.724;2023-04-19T06:06:50;3.83;;;2.33;;
11222;SDS011;5668;52.012;8.724;2023-04-19T06:09:17;3.17;;;2.17;;
11222;SDS011;5668;52.012;8.724;2023-04-19T06:11:45;3.40;;;2.83;;
11222;SDS011;5668;52.012;8.724;2023-04-19T06:14:12;3.80;;;2.47;;
11222;SDS011;5668;52.012;8.724;2023-04-19T06:16:40;2.80;;;2.17;;
11222;SDS011;5668;52.012;8.724;2023-04-19T06:19:08;3.37;;;2.10;;
11222;SDS011;5668;52.012;8.724;2023-04-19T06:21:35;4.00;;;2.33;;
11222;SDS011;5668;52.012;8.724;2023-04-19T06:24:02;2.57;;;2.33;;
11222;SDS011;5668;52.012;8.724;2023-04-19T06:26:31;3.37;;;2.00;;
11222;SDS011;5668;52.012;8.724;2023-04-19T06:28:58;2.23;;;2.03;;
11222;SDS011;5668;52.012;8.724;2023-04-19T06:31:26;4.30;;;2.10;;
11222;SDS011;5668;52.012;8.724;2023-04-19T06:33:54;3.63;;;2.20;;
11222;SDS011;5668;52.012;8.724;2023-04-19T06:36:21;6.30;;;2.40;;
11222;SDS011;5668;52.012;8.724;2023-04-19T06:38:49;2.30;;;2.10;;
11222;SDS011;5668;52.012;8.724;2023-04-19T06:41:16;2.90;;;2.17;;
11222;SDS011;5668;52.012;8.724;2023-04-19T06:43:43;2.10;;;1.90;;
11222;SDS011;5668;52.012;8.724;2023-04-19T06:46:10;2.20;;;2.00;;
11222;SDS011;5668;52.012;8.724;2023-04-19T06:48:38;2.50;;;1.90;;
11222;SDS011;5668;52.012;8.724;2023-04-19T06:51:07;3.03;;;2.10;;
11222;SDS011;5668;52.012;8.724;2023-04-19T06:53:34;2.23;;;2.03;;
11222;SDS011;5668;52.012;8.724;2023-04-19T06:56:02;3.00;;;1.93;;
11222;SDS011;5668;52.012;8.724;2023-04-19T06:58:30;3.43;;;2.00;;
11222;SDS011;5668;52.012;8.724;2023-04-19T07:00:57;2.47;;;2.00;;
11222;SDS011;5668;52.012;8.724;2023-04-19T07:03:25;3.73;;;2.10;;
11222;SDS011;5668;52.012;8.724;2023-04-19T07:05:52;1.97;;;1.80;;
11222;SDS011;5668;52.012;8.724;2023-04-19T07:08:22;2.93;;;2.03;;
11222;SDS011;5668;52.012;8.724;2023-04-19T07:10:50;2.77;;;2.30;;
11222;SDS011;5668;52.012;8.724;2023-04-19T07:13:18;4.03;;;2.20;;
11222;SDS011;5668;52.012;8.724;2023-04-19T07:15:45;2.63;;;2.20;;
11222;SDS011;5668;52.012;8.724;2023-04-19T07:18:12;2.10;;;1.90;;
11222;SDS011;5668;52.012;8.724;2023-04-19T07:20:40;2.30;;;1.93;;
11222;SDS011;5668;52.012;8.724;2023-04-19T07:23:12;2.33;;;1.80;;
11222;SDS011;5668;52.012;8.724;2023-04-19T07:25:41;3.17;;;1.90;;
11222;SDS011;5668;52.012;8.724;2023-04-19T07:28:09;1.77;;;1.60;;
11222;SDS011;5668;52.012;8.724;2023-04-19T07:30:36;2.17;;;1.87;;
11222;SDS011;5668;52.012;8.724;2023-04-19T07:33:03;2.47;;;1.80;;
11222;SDS011;5668;52.012;8.724;2023-04-19T07:35:32;2.40;;;2.00;;
11222;SDS011;5668;52.012;8.724;2023-04-19T07:38:00;3.13;;;1.97;;
11222;SDS011;5668;52.012;8.724;2023-04-19T07:40:27;4.50;;;2.53;;
11222;SDS011;5668;52.012;8.724;2023-04-19T07:42:56;2.50;;;2.00;;
11222;SDS011;5668;52.012;8.724;2023-04-19T07:45:23;2.17;;;1.83;;
11222;SDS011;5668;52.012;8.724;2023-04-19T07:47:50;4.83;;;2.20;;
11222;SDS011;5668;52.012;8.724;2023-04-19T07:50:18;2.33;;;1.90;;
11222;SDS011;5668;52.012;8.724;2023-04-19T07:52:46;4.93;;;2.00;;
11222;SDS011;5668;52.012;8.724;2023-04-19T07:55:14;3.67;;;2.10;;
11222;SDS011;5668;52.012;8.724;2023-04-19T07:57:41;2.77;;;2.10;;
11222;SDS011;5668;52.012;8.724;2023-04-19T08:00:13;3.20;;;2.40;;
11222;SDS011;5668;52.012;8.724;2023-04-19T08:02:42;3.10;;;2.40;;
11222;SDS011;5668;52.012;8.724;2023-04-19T08:05:09;3.20;;;2.10;;
11222;SDS011;5668;52.012;8.724;2023-04-19T08:07:37;3.80;;;2.37;;
11222;SDS011;5668;52.012;8.724;2023-04-19T08:10:06;4.33;;;2.20;;
11222;SDS011;5668;52.012;8.724;2023-04-19T08:12:34;4.73;;;2.10;;
11222;SDS011;5668;52.012;8.724;2023-04-19T08:15:01;3.67;;;2.60;;
11222;SDS011;5668;52.012;8.724;2023-04-19T08:17:30;3.17;;;2.10;;
11222;SDS011;5668;52.012;8.724;2023-04-19T08:20:01;3.47;;;2.63;;
11222;SDS011;5668;52.012;8.724;2023-04-19T08:22:31;3.63;;;2.60;;
11222;SDS011;5668;52.012;8.724;2023-04-19T08:24:58;3.50;;;3.03;;
11222;SDS011;5668;52.012;8.724;2023-04-19T08:27:25;2.50;;;2.30;;
11222;SDS011;5668;52.012;8.724;2023-04-19T08:29:52;4.13;;;2.50;;
11222;SDS011;5668;52.012;8.724;2023-04-19T08:32:20;3.07;;;2.30;;
11222;SDS011;5668;52.012;8.724;2023-04-19T08:34:48;2.83;;;2.53;;
11222;SDS011;5668;52.012;8.724;2023-04-19T08:37:15;2.37;;;2.17;;
11222;SDS011;5668;52.012;8.724;2023-04-19T08:39:43;3.10;;;2.10;;
11222;SDS011;5668;52.012;8.724;2023-04-19T08:42:10;2.73;;;1.87;;
11222;SDS011;5668;52.012;8.724;2023-04-19T08:44:37;3.97;;;2.50;;
11222;SDS011;5668;52.012;8.724;2023-04-19T08:47:06;3.00;;;2.67;;
11222;SDS011;5668;52.012;8.724;2023-04-19T08:49:34;4.53;;;3.03;;
11222;SDS011;5668;52.012;8.724;2023-04-19T08:52:05;5.37;;;2.57;;
11222;SDS011;5668;52.012;8.724;2023-04-19T08:54:34;5.80;;;2.43;;
11222;SDS011;5668;52.012;8.724;2023-04-19T08:57:01;4.53;;;2.40;;
11222;SDS011;5668;52.012;8.724;2023-04-19T08:59:28;2.73;;;2.47;;
11222;SDS011;5668;52.012;8.724;2023-04-19T09:01:59;9.00;;;2.70;;
11222;SDS011;5668;52.012;8.724;2023-04-19T09:04:26;2.60;;;2.30;;
11222;SDS011;5668;52.012;8.724;2023-04-19T09:06:54;4.07;;;2.40;;
11222;SDS011;5668;52.012;8.724;2023-04-19T09:09:23;4.63;;;2.23;;
11222;SDS011;5668;52.012;8.724;2023-04-19T09:11:51;2.20;;;2.00;;
11222;SDS011;5668;52.012;8.724;2023-04-19T09:14:19;3.93;;;2.27;;
11222;SDS011;5668;52.012;8.724;2023-04-19T09:16:47;2.67;;;2.20;;
11222;SDS011;5668;52.012;8.724;2023-04-19T09:19:16;4.13;;;2.10;;
11222;SDS011;5668;52.012;8.724;2023-04-19T09:21:43;3.57;;;1.97;;
11222;SDS011;5668;52.012;8.724;2023-04-19T09:24:11;2.87;;;2.43;;
11222;SDS011;5668;52.012;8.724;2023-04-19T09:26:40;2.40;;;2.17;;
11222;SDS011;5668;52.012;8.724;2023-04-19T09:29:21;2.47;;;2.27;;
11222;SDS011;5668;52.012;8.724;2023-04-19T09:31:56;2.47;;;2.27;;
11222;SDS011;5668;52.012;8.724;2023-04-19T09:34:23;2.63;;;2.40;;
11222;SDS011;5668;52.012;8.724;2023-04-19T09:36:52;4.20;;;2.00;;
11222;SDS011;5668;52.012;8.724;2023-04-19T09:39:27;3.87;;;2.40;;
11222;SDS011;5668;52.012;8.724;2023-04-19T09:41:57;2.30;;;2.10;;
11222;SDS011;5668;52.012;8.724;2023-04-19T09:44:24;2.17;;;2.00;;
11222;SDS011;5668;52.012;8.724;2023-04-19T09:46:52;3.67;;;2.17;;
11222;SDS011;5668;52.012;8.724;2023-04-19T09:49:20;3.20;;;2.40;;
11222;SDS011;5668;52.012;8.724;2023-04-19T09:51:49;2.63;;;2.20;;
11222;SDS011;5668;52.012;8.724;2023-04-19T09:54:18;4.87;;;2.10;;
11222;SDS011;5668;52.012;8.724;2023-04-19T09:56:46;5.20;;;2.40;;
11222;SDS011;5668;52.012;8.724;2023-04-19T09:59:15;2.37;;;1.90;;
11222;SDS011;5668;52.012;8.724;2023-04-19T10:01:43;2.77;;;2.00;;
11222;SDS011;5668;52.012;8.724;2023-04-19T10:04:11;2.73;;;2.10;;
11222;SDS011;5668;52.012;8.724;2023-04-19T10:06:46;4.77;;;2.33;;
11222;SDS011;5668;52.012;8.724;2023-04-19T10:09:14;2.30;;;2.10;;
11222;SDS011;5668;52.012;8.724;2023-04-19T10:11:46;4.80;;;2.40;;
11222;SDS011;5668;52.012;8.724;2023-04-19T10:14:16;5.13;;;2.23;;
11222;SDS011;5668;52.012;8.724;2023-04-19T10:16:47;3.90;;;2.20;;
11222;SDS011;5668;52.012;8.724;2023-04-19T10:19:15;2.97;;;2.60;;
11222;SDS011;5668;52.012;8.724;2023-04-19T10:21:45;2.47;;;1.90;;
11222;SDS011;5668;52.012;8.724;2023-04-19T10:24:15;3.90;;;2.10;;
11222;SDS011;5668;52.012;8.724;2023-04-19T10:32:21;3.60;;;2.30;;
11222;SDS011;5668;52.012;8.724;2023-04-19T10:34:50;3.43;;;2.23;;
11222;SDS011;5668;52.012;8.724;2023-04-19T10:37:20;3.20;;;2.20;;
11222;SDS011;5668;52.012;8.724;2023-04-19T10:39:50;4.40;;;2.20;;
11222;SDS011;5668;52.012;8.724;2023-04-19T10:42:17;2.33;;;2.00;;
11222;SDS011;5668;52.012;8.724;2023-04-19T10:47:50;3.03;;;2.03;;
11222;SDS011;5668;52.012;8.724;2023-04-19T10:50:18;2.53;;;2.33;;
11222;SDS011;5668;52.012;8.724;2023-04-19T10:52:48;2.97;;;2.17;;
11222;SDS011;5668;52.012;8.724;2023-04-19T10:55:17;2.43;;;1.90;;
11222;SDS011;5668;52.012;8.724;2023-04-19T10:58:00;6.50;;;2.13;;
11222;SDS011;5668;52.012;8.724;2023-04-19T11:00:28;3.97;;;2.27;;
11222;SDS011;5668;52.012;8.724;2023-04-19T11:02:58;2.53;;;2.20;;
11222;SDS011;5668;52.012;8.724;2023-04-19T11:05:25;3.63;;;2.10;;
11222;SDS011;5668;52.012;8.724;2023-04-19T11:07:53;3.57;;;2.03;;
11222;SDS011;5668;52.012;8.724;2023-04-19T11:10:28;2.03;;;1.87;;
11222;SDS011;5668;52.012;8.724;2023-04-19T11:12:56;3.10;;;2.10;;
11222;SDS011;5668;52.012;8.724;2023-04-19T11:15:23;3.27;;;1.80;;
11222;SDS011;5668;52.012;8.724;2023-04-19T11:17:51;3.67;;;2.30;;
11222;SDS011;5668;52.012;8.724;2023-04-19T11:20:21;2.67;;;2.00;;
11222;SDS011;5668;52.012;8.724;2023-04-19T11:22:50;3.50;;;2.07;;
11222;SDS011;5668;52.012;8.724;2023-04-19T11:25:17;4.27;;;2.27;;
11222;SDS011;5668;52.012;8.724;2023-04-19T11:27:46;4.40;;;2.07;;
11222;SDS011;5668;52.012;8.724;2023-04-19T11:30:16;4.57;;;1.97;;
11222;SDS011;5668;52.012;8.724;2023-04-19T11:32:46;2.93;;;2.20;;
11222;SDS011;5668;52.012;8.724;2023-04-19T11:35:17;3.55;;;2.00;;
11222;SDS011;5668;52.012;8.724;2023-04-19T11:37:46;2.73;;;2.00;;
11222;SDS011;5668;52.012;8.724;2023-04-19T11:40:14;2.00;;;1.80;;
11222;SDS011;5668;52.012;8.724;2023-04-19T11:42:43;2.73;;;2.03;;
11222;SDS011;5668;52.012;8.724;2023-04-19T11:45:11;2.25;;;2.03;;
11222;SDS011;5668;52.012;8.724;2023-04-19T11:47:49;2.63;;;2.20;;
11222;SDS011;5668;52.012;8.724;2023-04-19T11:50:29;2.60;;;2.10;;
11222;SDS011;5668;52.012;8.724;2023-04-19T11:52:59;2.50;;;2.13;;
11222;SDS011;5668;52.012;8.724;2023-04-19T11:55:34;4.82;;;2.10;;
11222;SDS011;5668;52.012;8.724;2023-04-19T11:58:02;2.00;;;1.80;;
11222;SDS011;5668;52.012;8.724;2023-04-19T12:00:33;2.10;;;1.90;;
11222;SDS011;5668;52.012;8.724;2023-04-19T12:03:01;2.50;;;2.00;;
11222;SDS011;5668;52.012;8.724;2023-04-19T12:05:29;2.88;;;1.80;;
11222;SDS011;5668;52.012;8.724;2023-04-19T12:08:01;2.23;;;1.90;;
11222;SDS011;5668;52.012;8.724;2023-04-19T12:10:29;2.92;;;2.13;;
11222;SDS011;5668;52.012;8.724;2023-04-19T12:12:57;2.20;;;2.00;;
11222;SDS011;5668;52.012;8.724;2023-04-19T12:15:39;2.42;;;1.50;;
11222;SDS011;5668;52.012;8.724;2023-04-19T12:18:07;4.85;;;2.00;;
11222;SDS011;5668;52.012;8.724;2023-04-19T12:20:35;2.33;;;1.65;;
11222;SDS011;5668;52.012;8.724;2023-04-19T12:23:04;3.05;;;2.00;;
11222;SDS011;5668;52.012;8.724;2023-04-19T12:25:35;2.22;;;1.77;;
11222;SDS011;5668;52.012;8.724;2023-04-19T12:28:03;1.75;;;1.65;;
11222;SDS011;5668;52.012;8.724;2023-04-19T12:30:30;5.18;;;1.92;;
11222;SDS011;5668;52.012;8.724;2023-04-19T12:32:59;2.22;;;1.50;;
11222;SDS011;5668;52.012;8.724;2023-04-19T12:35:26;2.40;;;1.38;;
11222;SDS011;5668;52.012;8.724;2023-04-19T12:37:54;1.55;;;1.20;;
11222;SDS011;5668;52.012;8.724;2023-04-19T12:40:24;9.45;;;1.92;;
11222;SDS011;5668;52.012;8.724;2023-04-19T12:42:52;2.58;;;1.50;;
11222;SDS011;5668;52.012;8.724;2023-04-19T12:45:20;3.50;;;1.40;;
11222;SDS011;5668;52.012;8.724;2023-04-19T12:47:47;3.15;;;1.70;;
11222;SDS011;5668;52.012;8.724;2023-04-19T12:50:15;4.43;;;1.50;;
11222;SDS011;5668;52.012;8.724;2023-04-19T12:52:43;2.80;;;1.52;;
11222;SDS011;5668;52.012;8.724;2023-04-19T12:55:11;3.30;;;1.30;;
11222;SDS011;5668;52.012;8.724;2023-04-19T12:57:39;1.60;;;1.30;;
11222;SDS011;5668;52.012;8.724;2023-04-19T13:00:07;1.70;;;1.50;;
11222;SDS011;5668;52.012;8.724;2023-04-19T13:02:36;1.80;;;1.42;;
11222;SDS011;5668;52.012;8.724;2023-04-19T13:05:04;5.80;;;1.40;;
11222;SDS011;5668;52.012;8.724;2023-04-19T13:07:32;2.55;;;1.48;;
11222;SDS011;5668;52.012;8.724;2023-04-19T13:09:59;1.40;;;1.25;;
11222;SDS011;5668;52.012;8.724;2023-04-19T13:12:27;2.47;;;1.52;;
11222;SDS011;5668;52.012;8.724;2023-04-19T13:14:56;1.92;;;1.13;;
11222;SDS011;5668;52.012;8.724;2023-04-19T13:17:23;3.63;;;1.33;;
11222;SDS011;5668;52.012;8.724;2023-04-19T13:19:50;2.33;;;1.40;;
11222;SDS011;5668;52.012;8.724;2023-04-19T13:22:18;4.05;;;1.52;;
11222;SDS011;5668;52.012;8.724;2023-04-19T13:24:45;2.60;;;1.42;;
11222;SDS011;5668;52.012;8.724;2023-04-19T13:27:12;2.47;;;1.67;;
11222;SDS011;5668;52.012;8.724;2023-04-19T13:29:40;2.85;;;1.50;;
11222;SDS011;5668;52.012;8.724;2023-04-19T13:32:08;2.20;;;1.48;;
11222;SDS011;5668;52.012;8.724;2023-04-19T13:34:36;2.78;;;1.50;;
11222;SDS011;5668;52.012;8.724;2023-04-19T13:37:05;3.95;;;1.48;;
11222;SDS011;5668;52.012;8.724;2023-04-19T13:39:32;2.25;;;1.65;;
11222;SDS011;5668;52.012;8.724;2023-04-19T13:42:00;2.75;;;1.67;;
11222;SDS011;5668;52.012;8.724;2023-04-19T13:44:27;2.15;;;1.60;;
11222;SDS011;5668;52.012;8.724;2023-04-19T13:46:55;2.58;;;1.63;;
11222;SDS011;5668;52.012;8.724;2023-04-19T13:49:23;1.92;;;1.60;;
11222;SDS011;5668;52.012;8.724;2023-04-19T13:51:51;2.53;;;1.30;;
11222;SDS011;5668;52.012;8.724;2023-04-19T13:54:18;2.38;;;1.88;;
11222;SDS011;5668;52.012;8.724;2023-04-19T13:56:46;1.95;;;1.40;;
11222;SDS011;5668;52.012;8.724;2023-04-19T13:59:13;2.13;;;1.80;;
11222;SDS011;5668;52.012;8.724;2023-04-19T14:01:41;2.55;;;1.83;;
11222;SDS011;5668;52.012;8.724;2023-04-19T14:04:08;4.13;;;1.90;;
11222;SDS011;5668;52.012;8.724;2023-04-19T14:06:36;3.53;;;1.73;;
11222;SDS011;5668;52.012;8.724;2023-04-19T14:09:04;4.85;;;1.80;;
11222;SDS011;5668;52.012;8.724;2023-04-19T14:11:31;3.38;;;2.15;;
11222;SDS011;5668;52.012;8.724;2023-04-19T14:13:58;2.33;;;1.90;;
11222;SDS011;5668;52.012;8.724;2023-04-19T14:16:25;4.10;;;1.80;;
11222;SDS011;5668;52.012;8.724;2023-04-19T14:18:53;3.15;;;1.73;;
11222;SDS011;5668;52.012;8.724;2023-04-19T14:21:20;2.38;;;1.92;;
11222;SDS011;5668;52.012;8.724;2023-04-19T14:23:48;3.70;;;1.98;;
11222;SDS011;5668;52.012;8.724;2023-04-19T14:26:16;2.80;;;2.00;;
11222;SDS011;5668;52.012;8.724;2023-04-19T14:28:43;2.00;;;1.80;;
11222;SDS011;5668;52.012;8.724;2023-04-19T14:31:10;5.18;;;2.50;;
11222;SDS011;5668;52.012;8.724;2023-04-19T14:33:37;7.78;;;6.43;;
11222;SDS011;5668;52.012;8.724;2023-04-19T14:36:05;6.45;;;4.68;;
11222;SDS011;5668;52.012;8.724;2023-04-19T14:38:33;2.85;;;2.60;;
11222;SDS011;5668;52.012;8.724;2023-04-19T14:41:01;3.08;;;2.47;;
11222;SDS011;5668;52.012;8.724;2023-04-19T14:43:29;4.38;;;3.10;;
11222;SDS011;5668;52.012;8.724;2023-04-19T14:45:56;4.43;;;4.10;;
11222;SDS011;5668;52.012;8.724;2023-04-19T14:48:24;4.20;;;3.80;;
11222;SDS011;5668;52.012;8.724;2023-04-19T14:50:51;2.45;;;2.25;;
11222;SDS011;5668;52.012;8.724;2023-04-19T14:53:18;2.77;;;2.20;;
11222;SDS011;5668;52.012;8.724;2023-04-19T14:55:45;3.17;;;2.35;;
11222;SDS011;5668;52.012;8.724;2023-04-19T14:58:14;3.43;;;2.10;;
11222;SDS011;5668;52.012;8.724;2023-04-19T15:00:41;4.37;;;2.33;;
11222;SDS011;5668;52.012;8.724;2023-04-19T15:03:09;4.13;;;2.60;;
11222;SDS011;5668;52.012;8.724;2023-04-19T15:05:36;4.37;;;3.30;;
11222;SDS011;5668;52.012;8.724;2023-04-19T15:08:03;4.87;;;2.70;;
11222;SDS011;5668;52.012;8.724;2023-04-19T15:10:31;4.00;;;2.13;;
11222;SDS011;5668;52.012;8.724;2023-04-19T15:12:59;5.13;;;2.87;;
11222;SDS011;5668;52.012;8.724;2023-04-19T15:15:27;3.70;;;2.87;;